Briefing drone pour Pleaux

Rechercher une autre localisation

Conditions de vol :


Nous sommes le : Mardi 27 octobre 2020
Il est 23:52 UTC (00:52 LT)

Lever de soleil : 05:57 UTC (06:57 LT)
Coucher de soleil : 17:12 UTC (18:12 LT)

Météo

L'essentiel des conditions de vol

VIGILANCE MÉTÉO FRANCE - Cantal (15)
Pas de vigilances particulieres
CARTE TEMSI
CARTES DES FRONTS
METAR de LFLW
LFLW 262330Z AUTO VRB02KT 9999 BKN012/// OVC017/// ///TCU 05/05 Q1014

Date d'émission: 26/10/2020
Heure d'émission: 23:30 UTC
Vent: Variable 2 KT (4 km/h)
Visibilité horizontale: > 10 km
Plafond :
- Nuages morcelés à 1200ft (366m)
- Couvert à 1700ft (518m)
Température: 5 °C
Point de rosée: 5 °C
Humidité: 100%
Pression (QNH): 1014 hPa
Prévision 24h pour Aurillac (18 km)
Vent : 177° pour 1 KT (5 km/h)
Temperature Maxi: 7 °C
Temperature Min: 7 °C
Humidité : 98%
Condition : Légère pluie



Warning: count(): Parameter must be an array or an object that implements Countable in /homepages/6/d509196549/htdocs/droneoxygene/briefing.php on line 743
WEBCAM POUR PLEAUX

Réglementation

Voler en sécurité

CARTES AERONAUTIQUE 1/500.000
CARTES VAC (LFLW)
SUP AIP




Chargement des AIP...
NOTAM (PLEAUX + Terrain à proximité / FIR )




Chargement des NOTAMS...
CONTACT PREFECTURE 15


Avertissement : Les données mises à disposition sont indicatives. Oxygène Drone ne pourra être tenu responsable de dégâts causés aux biens et aux personnes.